sensor_id;sensor_type;location;lat;lon;timestamp;temperature;humidity
67027;DHT22;53933;52.142;11.738;2022-08-21T00:00:51;24.10;71.40
67027;DHT22;53933;52.142;11.738;2022-08-21T00:03:18;24.10;71.60
67027;DHT22;53933;52.142;11.738;2022-08-21T00:05:48;24.20;71.30
67027;DHT22;53933;52.142;11.738;2022-08-21T00:08:16;24.10;71.40
67027;DHT22;53933;52.142;11.738;2022-08-21T00:10:43;24.10;71.40
67027;DHT22;53933;52.142;11.738;2022-08-21T00:13:13;24.00;71.20
67027;DHT22;53933;52.142;11.738;2022-08-21T00:15:40;24.00;71.40
67027;DHT22;53933;52.142;11.738;2022-08-21T00:18:08;24.00;71.30
67027;DHT22;53933;52.142;11.738;2022-08-21T00:20:37;24.00;71.60
67027;DHT22;53933;52.142;11.738;2022-08-21T00:23:04;24.10;70.90
67027;DHT22;53933;52.142;11.738;2022-08-21T00:25:31;24.00;70.90
67027;DHT22;53933;52.142;11.738;2022-08-21T00:27:58;24.00;70.40
67027;DHT22;53933;52.142;11.738;2022-08-21T00:30:26;24.00;70.50
67027;DHT22;53933;52.142;11.738;2022-08-21T00:32:53;23.90;70.70
67027;DHT22;53933;52.142;11.738;2022-08-21T00:35:24;23.90;70.80
67027;DHT22;53933;52.142;11.738;2022-08-21T00:37:51;23.90;70.80
67027;DHT22;53933;52.142;11.738;2022-08-21T00:40:21;23.90;70.50
67027;DHT22;53933;52.142;11.738;2022-08-21T00:42:48;23.90;70.70
67027;DHT22;53933;52.142;11.738;2022-08-21T00:45:16;23.90;70.30
67027;DHT22;53933;52.142;11.738;2022-08-21T00:47:44;23.90;70.20
67027;DHT22;53933;52.142;11.738;2022-08-21T00:50:11;24.00;70.20
67027;DHT22;53933;52.142;11.738;2022-08-21T00:52:38;24.00;69.90
67027;DHT22;53933;52.142;11.738;2022-08-21T00:55:07;24.00;69.50
67027;DHT22;53933;52.142;11.738;2022-08-21T00:57:39;24.00;69.40
67027;DHT22;53933;52.142;11.738;2022-08-21T01:00:10;24.00;69.40
67027;DHT22;53933;52.142;11.738;2022-08-21T01:02:37;24.00;69.30
67027;DHT22;53933;52.142;11.738;2022-08-21T01:05:07;24.00;69.70
67027;DHT22;53933;52.142;11.738;2022-08-21T01:07:34;24.00;69.10
67027;DHT22;53933;52.142;11.738;2022-08-21T01:10:01;24.00;69.40
67027;DHT22;53933;52.142;11.738;2022-08-21T01:12:27;23.90;69.60
67027;DHT22;53933;52.142;11.738;2022-08-21T01:14:54;23.90;69.30
67027;DHT22;53933;52.142;11.738;2022-08-21T01:17:21;23.90;69.30
67027;DHT22;53933;52.142;11.738;2022-08-21T01:19:48;23.90;68.90
67027;DHT22;53933;52.142;11.738;2022-08-21T01:22:16;23.90;69.30
67027;DHT22;53933;52.142;11.738;2022-08-21T01:24:42;23.90;69.10
67027;DHT22;53933;52.142;11.738;2022-08-21T01:27:09;23.90;68.80
67027;DHT22;53933;52.142;11.738;2022-08-21T01:29:38;24.00;68.60
67027;DHT22;53933;52.142;11.738;2022-08-21T01:32:10;24.00;68.50
67027;DHT22;53933;52.142;11.738;2022-08-21T01:34:44;24.00;68.50
67027;DHT22;53933;52.142;11.738;2022-08-21T01:37:12;24.00;68.50
67027;DHT22;53933;52.142;11.738;2022-08-21T01:39:42;24.00;68.90
67027;DHT22;53933;52.142;11.738;2022-08-21T01:42:09;24.00;69.10
67027;DHT22;53933;52.142;11.738;2022-08-21T01:44:36;24.00;69.00
67027;DHT22;53933;52.142;11.738;2022-08-21T01:47:05;24.00;69.10
67027;DHT22;53933;52.142;11.738;2022-08-21T01:49:33;24.00;69.40
67027;DHT22;53933;52.142;11.738;2022-08-21T01:51:59;24.00;69.20
67027;DHT22;53933;52.142;11.738;2022-08-21T01:54:27;24.00;69.10
67027;DHT22;53933;52.142;11.738;2022-08-21T01:56:55;24.00;68.90
67027;DHT22;53933;52.142;11.738;2022-08-21T01:59:23;24.00;68.40
67027;DHT22;53933;52.142;11.738;2022-08-21T02:01:50;24.00;68.50
67027;DHT22;53933;52.142;11.738;2022-08-21T02:04:17;24.10;68.10
67027;DHT22;53933;52.142;11.738;2022-08-21T02:06:44;24.10;67.80
67027;DHT22;53933;52.142;11.738;2022-08-21T02:09:12;24.10;68.00
67027;DHT22;53933;52.142;11.738;2022-08-21T02:11:40;24.10;68.10
67027;DHT22;53933;52.142;11.738;2022-08-21T02:14:08;24.10;67.90
67027;DHT22;53933;52.142;11.738;2022-08-21T02:16:35;24.10;68.30
67027;DHT22;53933;52.142;11.738;2022-08-21T02:19:02;24.10;67.90
67027;DHT22;53933;52.142;11.738;2022-08-21T02:21:28;24.10;68.30
67027;DHT22;53933;52.142;11.738;2022-08-21T02:23:55;24.10;68.00
67027;DHT22;53933;52.142;11.738;2022-08-21T02:26:21;24.00;67.70
67027;DHT22;53933;52.142;11.738;2022-08-21T02:28:48;24.00;67.80
67027;DHT22;53933;52.142;11.738;2022-08-21T02:31:16;24.00;68.00
67027;DHT22;53933;52.142;11.738;2022-08-21T02:33:42;24.00;67.70
67027;DHT22;53933;52.142;11.738;2022-08-21T02:36:10;23.90;68.00
67027;DHT22;53933;52.142;11.738;2022-08-21T02:38:38;23.90;68.00
67027;DHT22;53933;52.142;11.738;2022-08-21T02:41:06;23.90;68.00
67027;DHT22;53933;52.142;11.738;2022-08-21T02:43:34;23.90;68.10
67027;DHT22;53933;52.142;11.738;2022-08-21T02:46:00;23.90;68.10
67027;DHT22;53933;52.142;11.738;2022-08-21T02:48:31;23.80;68.40
67027;DHT22;53933;52.142;11.738;2022-08-21T02:51:00;23.80;68.20
67027;DHT22;53933;52.142;11.738;2022-08-21T02:53:28;23.80;68.60
67027;DHT22;53933;52.142;11.738;2022-08-21T02:55:57;23.80;68.80
67027;DHT22;53933;52.142;11.738;2022-08-21T02:58:27;23.80;68.80
67027;DHT22;53933;52.142;11.738;2022-08-21T03:00:54;23.80;68.60
67027;DHT22;53933;52.142;11.738;2022-08-21T03:03:20;23.80;68.80
67027;DHT22;53933;52.142;11.738;2022-08-21T03:05:49;23.70;68.50
67027;DHT22;53933;52.142;11.738;2022-08-21T03:08:16;23.70;68.40
67027;DHT22;53933;52.142;11.738;2022-08-21T03:10:45;23.70;68.50
67027;DHT22;53933;52.142;11.738;2022-08-21T03:13:12;23.70;68.70
67027;DHT22;53933;52.142;11.738;2022-08-21T03:15:40;23.60;68.80
67027;DHT22;53933;52.142;11.738;2022-08-21T03:18:07;23.60;68.60
67027;DHT22;53933;52.142;11.738;2022-08-21T03:20:35;23.70;68.70
67027;DHT22;53933;52.142;11.738;2022-08-21T03:23:04;23.60;68.70
67027;DHT22;53933;52.142;11.738;2022-08-21T03:25:31;23.60;68.90
67027;DHT22;53933;52.142;11.738;2022-08-21T03:27:58;23.50;68.80
67027;DHT22;53933;52.142;11.738;2022-08-21T03:30:25;23.60;68.60
67027;DHT22;53933;52.142;11.738;2022-08-21T03:32:52;23.50;68.90
67027;DHT22;53933;52.142;11.738;2022-08-21T03:35:20;23.50;67.80
67027;DHT22;53933;52.142;11.738;2022-08-21T03:37:47;23.40;68.60
67027;DHT22;53933;52.142;11.738;2022-08-21T03:40:17;23.30;68.90
67027;DHT22;53933;52.142;11.738;2022-08-21T03:42:44;23.30;69.10
67027;DHT22;53933;52.142;11.738;2022-08-21T03:45:13;23.30;69.20
67027;DHT22;53933;52.142;11.738;2022-08-21T03:47:50;23.30;69.30
67027;DHT22;53933;52.142;11.738;2022-08-21T03:50:17;23.20;69.20
67027;DHT22;53933;52.142;11.738;2022-08-21T03:52:44;23.20;69.10
67027;DHT22;53933;52.142;11.738;2022-08-21T03:55:10;23.20;69.40
67027;DHT22;53933;52.142;11.738;2022-08-21T03:57:38;23.20;69.50
67027;DHT22;53933;52.142;11.738;2022-08-21T04:00:06;23.20;69.30
67027;DHT22;53933;52.142;11.738;2022-08-21T04:02:34;23.20;69.20
67027;DHT22;53933;52.142;11.738;2022-08-21T04:05:01;23.20;69.10
67027;DHT22;53933;52.142;11.738;2022-08-21T04:07:27;23.20;68.90
67027;DHT22;53933;52.142;11.738;2022-08-21T04:09:54;23.10;69.10
67027;DHT22;53933;52.142;11.738;2022-08-21T04:12:21;23.10;69.10
67027;DHT22;53933;52.142;11.738;2022-08-21T04:14:49;23.10;69.10
67027;DHT22;53933;52.142;11.738;2022-08-21T04:17:16;23.10;69.10
67027;DHT22;53933;52.142;11.738;2022-08-21T04:19:43;23.00;68.90
67027;DHT22;53933;52.142;11.738;2022-08-21T04:22:10;23.00;69.20
67027;DHT22;53933;52.142;11.738;2022-08-21T04:24:37;23.10;69.10
67027;DHT22;53933;52.142;11.738;2022-08-21T04:27:03;23.00;68.90
67027;DHT22;53933;52.142;11.738;2022-08-21T04:29:30;23.00;69.00
67027;DHT22;53933;52.142;11.738;2022-08-21T04:31:58;23.00;68.90
67027;DHT22;53933;52.142;11.738;2022-08-21T04:34:24;23.00;68.90
67027;DHT22;53933;52.142;11.738;2022-08-21T04:36:51;23.00;68.80
67027;DHT22;53933;52.142;11.738;2022-08-21T04:39:17;23.00;68.90
67027;DHT22;53933;52.142;11.738;2022-08-21T04:41:44;23.10;68.70
67027;DHT22;53933;52.142;11.738;2022-08-21T04:44:11;23.10;68.60
67027;DHT22;53933;52.142;11.738;2022-08-21T04:46:37;23.10;68.30
67027;DHT22;53933;52.142;11.738;2022-08-21T04:49:05;23.10;68.60
67027;DHT22;53933;52.142;11.738;2022-08-21T04:51:34;23.10;68.60
67027;DHT22;53933;52.142;11.738;2022-08-21T04:54:06;23.10;68.50
67027;DHT22;53933;52.142;11.738;2022-08-21T04:56:37;23.10;68.50
67027;DHT22;53933;52.142;11.738;2022-08-21T04:59:11;23.20;68.50
67027;DHT22;53933;52.142;11.738;2022-08-21T05:01:39;23.20;68.40
67027;DHT22;53933;52.142;11.738;2022-08-21T05:04:10;23.20;68.50
67027;DHT22;53933;52.142;11.738;2022-08-21T05:06:38;23.30;68.50
67027;DHT22;53933;52.142;11.738;2022-08-21T05:09:08;23.30;68.50
67027;DHT22;53933;52.142;11.738;2022-08-21T05:11:35;23.30;68.50
67027;DHT22;53933;52.142;11.738;2022-08-21T05:14:03;23.40;68.50
67027;DHT22;53933;52.142;11.738;2022-08-21T05:16:29;23.40;68.20
67027;DHT22;53933;52.142;11.738;2022-08-21T05:18:56;23.40;68.10
67027;DHT22;53933;52.142;11.738;2022-08-21T05:21:25;23.50;68.10
67027;DHT22;53933;52.142;11.738;2022-08-21T05:23:51;23.50;68.30
67027;DHT22;53933;52.142;11.738;2022-08-21T05:26:18;23.60;68.10
67027;DHT22;53933;52.142;11.738;2022-08-21T05:28:45;23.60;67.70
67027;DHT22;53933;52.142;11.738;2022-08-21T05:31:11;23.70;67.40
67027;DHT22;53933;52.142;11.738;2022-08-21T05:33:38;23.80;67.50
67027;DHT22;53933;52.142;11.738;2022-08-21T05:36:05;23.80;67.30
67027;DHT22;53933;52.142;11.738;2022-08-21T05:38:33;23.90;67.50
67027;DHT22;53933;52.142;11.738;2022-08-21T05:40:59;23.90;67.20
67027;DHT22;53933;52.142;11.738;2022-08-21T05:43:26;24.00;68.00
67027;DHT22;53933;52.142;11.738;2022-08-21T05:45:52;24.10;67.20
67027;DHT22;53933;52.142;11.738;2022-08-21T05:48:22;24.20;66.50
67027;DHT22;53933;52.142;11.738;2022-08-21T05:50:50;24.40;66.10
67027;DHT22;53933;52.142;11.738;2022-08-21T05:53:19;24.50;65.10
67027;DHT22;53933;52.142;11.738;2022-08-21T05:55:47;24.70;63.70
67027;DHT22;53933;52.142;11.738;2022-08-21T05:58:16;24.80;63.10
67027;DHT22;53933;52.142;11.738;2022-08-21T06:00:43;24.90;63.40
67027;DHT22;53933;52.142;11.738;2022-08-21T06:03:12;25.10;63.40
67027;DHT22;53933;52.142;11.738;2022-08-21T06:05:38;25.20;62.50
67027;DHT22;53933;52.142;11.738;2022-08-21T06:08:05;25.40;62.60
67027;DHT22;53933;52.142;11.738;2022-08-21T06:10:31;25.50;62.10
67027;DHT22;53933;52.142;11.738;2022-08-21T06:12:59;25.60;60.70
67027;DHT22;53933;52.142;11.738;2022-08-21T06:15:26;25.60;60.60
67027;DHT22;53933;52.142;11.738;2022-08-21T06:17:54;25.70;60.20
67027;DHT22;53933;52.142;11.738;2022-08-21T06:20:21;25.60;60.40
67027;DHT22;53933;52.142;11.738;2022-08-21T06:22:48;25.60;60.70
67027;DHT22;53933;52.142;11.738;2022-08-21T06:25:15;25.60;60.80
67027;DHT22;53933;52.142;11.738;2022-08-21T06:27:42;25.60;61.00
67027;DHT22;53933;52.142;11.738;2022-08-21T06:30:11;25.60;60.90
67027;DHT22;53933;52.142;11.738;2022-08-21T06:32:38;25.60;60.90
67027;DHT22;53933;52.142;11.738;2022-08-21T06:35:06;25.60;61.00
67027;DHT22;53933;52.142;11.738;2022-08-21T06:37:32;25.70;62.60
67027;DHT22;53933;52.142;11.738;2022-08-21T06:39:59;25.90;61.40
67027;DHT22;53933;52.142;11.738;2022-08-21T06:42:26;26.00;59.80
67027;DHT22;53933;52.142;11.738;2022-08-21T06:44:53;26.10;60.10
67027;DHT22;53933;52.142;11.738;2022-08-21T06:47:21;26.20;59.10
67027;DHT22;53933;52.142;11.738;2022-08-21T06:49:48;26.20;58.70
67027;DHT22;53933;52.142;11.738;2022-08-21T06:52:14;26.30;58.40
67027;DHT22;53933;52.142;11.738;2022-08-21T06:54:41;26.30;58.30
67027;DHT22;53933;52.142;11.738;2022-08-21T06:57:07;26.30;57.90
67027;DHT22;53933;52.142;11.738;2022-08-21T06:59:34;26.30;57.90
67027;DHT22;53933;52.142;11.738;2022-08-21T07:02:01;26.40;57.80
67027;DHT22;53933;52.142;11.738;2022-08-21T07:04:29;26.40;57.70
67027;DHT22;53933;52.142;11.738;2022-08-21T07:06:56;26.40;57.30
67027;DHT22;53933;52.142;11.738;2022-08-21T07:09:22;26.50;57.60
67027;DHT22;53933;52.142;11.738;2022-08-21T07:11:51;26.50;57.60
67027;DHT22;53933;52.142;11.738;2022-08-21T07:14:18;26.50;57.70
67027;DHT22;53933;52.142;11.738;2022-08-21T07:16:45;26.60;57.60
67027;DHT22;53933;52.142;11.738;2022-08-21T07:19:11;26.60;57.60
67027;DHT22;53933;52.142;11.738;2022-08-21T07:21:39;26.70;57.50
67027;DHT22;53933;52.142;11.738;2022-08-21T07:24:06;26.70;57.20
67027;DHT22;53933;52.142;11.738;2022-08-21T07:26:32;26.80;56.50
67027;DHT22;53933;52.142;11.738;2022-08-21T07:28:59;26.90;56.00
67027;DHT22;53933;52.142;11.738;2022-08-21T07:31:26;27.10;55.10
67027;DHT22;53933;52.142;11.738;2022-08-21T07:33:53;27.20;54.10
67027;DHT22;53933;52.142;11.738;2022-08-21T07:36:20;27.30;54.20
67027;DHT22;53933;52.142;11.738;2022-08-21T07:38:48;27.30;55.00
67027;DHT22;53933;52.142;11.738;2022-08-21T07:41:17;27.50;55.00
67027;DHT22;53933;52.142;11.738;2022-08-21T07:43:44;27.70;55.00
67027;DHT22;53933;52.142;11.738;2022-08-21T07:46:11;27.90;54.80
67027;DHT22;53933;52.142;11.738;2022-08-21T07:48:38;28.10;54.50
67027;DHT22;53933;52.142;11.738;2022-08-21T07:51:07;28.30;54.10
67027;DHT22;53933;52.142;11.738;2022-08-21T07:53:35;28.40;53.80
67027;DHT22;53933;52.142;11.738;2022-08-21T07:56:04;28.50;53.80
67027;DHT22;53933;52.142;11.738;2022-08-21T07:58:31;28.60;53.40
67027;DHT22;53933;52.142;11.738;2022-08-21T08:00:58;28.70;53.60
67027;DHT22;53933;52.142;11.738;2022-08-21T08:03:25;28.70;53.30
67027;DHT22;53933;52.142;11.738;2022-08-21T08:05:52;28.90;53.30
67027;DHT22;53933;52.142;11.738;2022-08-21T08:08:18;29.00;53.10
67027;DHT22;53933;52.142;11.738;2022-08-21T08:10:45;29.10;52.80
67027;DHT22;53933;52.142;11.738;2022-08-21T08:13:13;29.20;52.60
67027;DHT22;53933;52.142;11.738;2022-08-21T08:15:40;29.30;52.20
67027;DHT22;53933;52.142;11.738;2022-08-21T08:18:06;29.50;52.00
67027;DHT22;53933;52.142;11.738;2022-08-21T08:20:33;29.50;51.10
67027;DHT22;53933;52.142;11.738;2022-08-21T08:23:00;29.50;49.20
67027;DHT22;53933;52.142;11.738;2022-08-21T08:25:27;29.50;48.80
67027;DHT22;53933;52.142;11.738;2022-08-21T08:27:54;29.50;48.70
67027;DHT22;53933;52.142;11.738;2022-08-21T08:30:22;29.50;48.50
67027;DHT22;53933;52.142;11.738;2022-08-21T08:32:49;29.40;48.10
67027;DHT22;53933;52.142;11.738;2022-08-21T08:35:16;29.40;49.70
67027;DHT22;53933;52.142;11.738;2022-08-21T08:37:43;29.30;49.40
67027;DHT22;53933;52.142;11.738;2022-08-21T08:40:14;29.40;49.50
67027;DHT22;53933;52.142;11.738;2022-08-21T08:42:44;29.40;49.30
67027;DHT22;53933;52.142;11.738;2022-08-21T08:45:16;29.50;48.80
67027;DHT22;53933;52.142;11.738;2022-08-21T08:47:47;29.50;48.70
67027;DHT22;53933;52.142;11.738;2022-08-21T08:50:18;29.50;49.00
67027;DHT22;53933;52.142;11.738;2022-08-21T08:52:49;29.60;48.60
67027;DHT22;53933;52.142;11.738;2022-08-21T08:55:21;29.60;48.00
67027;DHT22;53933;52.142;11.738;2022-08-21T08:57:50;29.70;47.70
67027;DHT22;53933;52.142;11.738;2022-08-21T09:00:20;29.90;47.70
67027;DHT22;53933;52.142;11.738;2022-08-21T09:02:51;30.00;46.70
67027;DHT22;53933;52.142;11.738;2022-08-21T09:05:25;30.10;48.10
67027;DHT22;53933;52.142;11.738;2022-08-21T09:08:14;30.10;47.30
67027;DHT22;53933;52.142;11.738;2022-08-21T09:10:48;30.20;46.70
67027;DHT22;53933;52.142;11.738;2022-08-21T09:13:23;30.30;47.00
67027;DHT22;53933;52.142;11.738;2022-08-21T09:15:54;30.40;47.40
67027;DHT22;53933;52.142;11.738;2022-08-21T09:18:33;30.50;46.40
67027;DHT22;53933;52.142;11.738;2022-08-21T09:21:09;30.70;46.20
67027;DHT22;53933;52.142;11.738;2022-08-21T09:23:46;31.00;45.70
67027;DHT22;53933;52.142;11.738;2022-08-21T09:26:16;31.10;46.00
67027;DHT22;53933;52.142;11.738;2022-08-21T09:28:44;31.20;45.30
67027;DHT22;53933;52.142;11.738;2022-08-21T09:31:21;31.40;44.60
67027;DHT22;53933;52.142;11.738;2022-08-21T09:33:50;31.50;44.30
67027;DHT22;53933;52.142;11.738;2022-08-21T09:36:24;31.60;44.20
67027;DHT22;53933;52.142;11.738;2022-08-21T09:38:53;31.70;44.30
67027;DHT22;53933;52.142;11.738;2022-08-21T09:41:29;31.80;44.30
67027;DHT22;53933;52.142;11.738;2022-08-21T09:43:56;31.90;44.10
67027;DHT22;53933;52.142;11.738;2022-08-21T09:46:24;32.00;44.00
67027;DHT22;53933;52.142;11.738;2022-08-21T09:48:54;32.20;43.60
67027;DHT22;53933;52.142;11.738;2022-08-21T09:51:23;32.10;43.80
67027;DHT22;53933;52.142;11.738;2022-08-21T09:53:53;32.10;43.60
67027;DHT22;53933;52.142;11.738;2022-08-21T09:56:26;32.20;44.00
67027;DHT22;53933;52.142;11.738;2022-08-21T09:59:16;32.30;43.20
67027;DHT22;53933;52.142;11.738;2022-08-21T10:01:46;32.30;43.70
67027;DHT22;53933;52.142;11.738;2022-08-21T10:04:15;32.40;43.80
67027;DHT22;53933;52.142;11.738;2022-08-21T10:06:41;32.40;42.30
67027;DHT22;53933;52.142;11.738;2022-08-21T10:09:11;32.50;42.40
67027;DHT22;53933;52.142;11.738;2022-08-21T10:11:39;32.50;42.90
67027;DHT22;53933;52.142;11.738;2022-08-21T10:14:14;32.40;43.10
67027;DHT22;53933;52.142;11.738;2022-08-21T10:16:51;32.40;43.60
67027;DHT22;53933;52.142;11.738;2022-08-21T10:19:26;32.50;43.50
67027;DHT22;53933;52.142;11.738;2022-08-21T10:22:00;32.50;43.40
67027;DHT22;53933;52.142;11.738;2022-08-21T10:24:32;32.50;43.50
67027;DHT22;53933;52.142;11.738;2022-08-21T10:27:10;32.40;44.30
67027;DHT22;53933;52.142;11.738;2022-08-21T10:29:46;32.50;44.00
67027;DHT22;53933;52.142;11.738;2022-08-21T10:35:24;32.50;44.10
67027;DHT22;53933;52.142;11.738;2022-08-21T10:38:22;32.60;43.70
67027;DHT22;53933;52.142;11.738;2022-08-21T10:40:59;32.40;43.20
67027;DHT22;53933;52.142;11.738;2022-08-21T10:43:36;32.20;43.60
67027;DHT22;53933;52.142;11.738;2022-08-21T10:46:11;32.20;43.80
67027;DHT22;53933;52.142;11.738;2022-08-21T10:48:47;32.40;43.20
67027;DHT22;53933;52.142;11.738;2022-08-21T10:51:19;32.40;44.00
67027;DHT22;53933;52.142;11.738;2022-08-21T10:53:58;32.50;43.30
67027;DHT22;53933;52.142;11.738;2022-08-21T10:56:29;32.50;44.80
67027;DHT22;53933;52.142;11.738;2022-08-21T10:59:04;32.40;45.00
67027;DHT22;53933;52.142;11.738;2022-08-21T11:01:39;32.30;44.50
67027;DHT22;53933;52.142;11.738;2022-08-21T11:04:16;32.10;44.90
67027;DHT22;53933;52.142;11.738;2022-08-21T11:06:48;31.90;45.60
67027;DHT22;53933;52.142;11.738;2022-08-21T11:09:22;31.60;46.20
67027;DHT22;53933;52.142;11.738;2022-08-21T11:11:53;31.40;46.60
67027;DHT22;53933;52.142;11.738;2022-08-21T11:14:25;31.20;47.00
67027;DHT22;53933;52.142;11.738;2022-08-21T11:17:02;31.00;47.00
67027;DHT22;53933;52.142;11.738;2022-08-21T11:19:36;30.80;47.40
67027;DHT22;53933;52.142;11.738;2022-08-21T11:22:13;30.80;47.40
67027;DHT22;53933;52.142;11.738;2022-08-21T11:24:44;30.60;47.20
67027;DHT22;53933;52.142;11.738;2022-08-21T11:27:19;30.60;47.00
67027;DHT22;53933;52.142;11.738;2022-08-21T11:29:49;30.60;46.70
67027;DHT22;53933;52.142;11.738;2022-08-21T11:32:50;30.50;47.20
67027;DHT22;53933;52.142;11.738;2022-08-21T11:35:30;30.50;47.90
67027;DHT22;53933;52.142;11.738;2022-08-21T11:38:09;30.30;46.90
67027;DHT22;53933;52.142;11.738;2022-08-21T11:40:59;30.30;46.20
67027;DHT22;53933;52.142;11.738;2022-08-21T11:43:36;30.20;46.20
67027;DHT22;53933;52.142;11.738;2022-08-21T11:46:22;30.10;45.80
67027;DHT22;53933;52.142;11.738;2022-08-21T11:49:02;30.10;46.10
67027;DHT22;53933;52.142;11.738;2022-08-21T11:51:35;30.00;46.80
67027;DHT22;53933;52.142;11.738;2022-08-21T11:54:09;30.00;46.00
67027;DHT22;53933;52.142;11.738;2022-08-21T11:56:45;30.00;45.90
67027;DHT22;53933;52.142;11.738;2022-08-21T11:59:17;29.90;45.60
67027;DHT22;53933;52.142;11.738;2022-08-21T12:01:48;30.00;47.30
67027;DHT22;53933;52.142;11.738;2022-08-21T12:04:21;30.00;47.50
67027;DHT22;53933;52.142;11.738;2022-08-21T12:06:48;30.00;47.70
67027;DHT22;53933;52.142;11.738;2022-08-21T12:09:32;30.00;46.30
67027;DHT22;53933;52.142;11.738;2022-08-21T12:12:02;30.00;47.30
67027;DHT22;53933;52.142;11.738;2022-08-21T12:14:37;30.00;48.00
67027;DHT22;53933;52.142;11.738;2022-08-21T12:17:05;30.00;49.60
67027;DHT22;53933;52.142;11.738;2022-08-21T12:19:32;30.00;49.60
67027;DHT22;53933;52.142;11.738;2022-08-21T12:22:08;29.90;49.60
67027;DHT22;53933;52.142;11.738;2022-08-21T12:24:40;29.90;49.40
67027;DHT22;53933;52.142;11.738;2022-08-21T12:27:20;29.80;49.30
67027;DHT22;53933;52.142;11.738;2022-08-21T12:29:52;29.80;48.80
67027;DHT22;53933;52.142;11.738;2022-08-21T12:32:25;29.70;48.60
67027;DHT22;53933;52.142;11.738;2022-08-21T12:34:55;29.70;49.00
67027;DHT22;53933;52.142;11.738;2022-08-21T12:37:29;29.70;48.70
67027;DHT22;53933;52.142;11.738;2022-08-21T12:40:04;29.70;47.90
67027;DHT22;53933;52.142;11.738;2022-08-21T12:42:37;29.70;48.20
67027;DHT22;53933;52.142;11.738;2022-08-21T12:45:11;29.60;48.80
67027;DHT22;53933;52.142;11.738;2022-08-21T12:47:47;29.60;48.20
67027;DHT22;53933;52.142;11.738;2022-08-21T12:50:19;29.70;48.70
67027;DHT22;53933;52.142;11.738;2022-08-21T12:53:01;29.70;49.50
67027;DHT22;53933;52.142;11.738;2022-08-21T12:55:33;29.70;49.60
67027;DHT22;53933;52.142;11.738;2022-08-21T12:58:00;29.60;49.40
67027;DHT22;53933;52.142;11.738;2022-08-21T13:00:29;29.60;49.10
67027;DHT22;53933;52.142;11.738;2022-08-21T13:02:56;29.60;48.70
67027;DHT22;53933;52.142;11.738;2022-08-21T13:05:29;29.60;49.00
67027;DHT22;53933;52.142;11.738;2022-08-21T13:07:57;29.60;48.00
67027;DHT22;53933;52.142;11.738;2022-08-21T13:10:26;29.70;48.40
67027;DHT22;53933;52.142;11.738;2022-08-21T13:12:57;29.60;49.40
67027;DHT22;53933;52.142;11.738;2022-08-21T13:15:26;29.60;48.50
67027;DHT22;53933;52.142;11.738;2022-08-21T13:17:54;29.60;48.70
67027;DHT22;53933;52.142;11.738;2022-08-21T13:20:29;29.50;49.00
67027;DHT22;53933;52.142;11.738;2022-08-21T13:22:56;29.60;49.00
67027;DHT22;53933;52.142;11.738;2022-08-21T13:25:27;29.40;49.20
67027;DHT22;53933;52.142;11.738;2022-08-21T13:28:00;29.40;49.30
67027;DHT22;53933;52.142;11.738;2022-08-21T13:30:27;29.40;48.80
67027;DHT22;53933;52.142;11.738;2022-08-21T13:32:58;29.40;49.40
67027;DHT22;53933;52.142;11.738;2022-08-21T13:35:30;29.40;48.30
67027;DHT22;53933;52.142;11.738;2022-08-21T13:37:57;29.40;48.20
67027;DHT22;53933;52.142;11.738;2022-08-21T13:40:26;29.40;48.80
67027;DHT22;53933;52.142;11.738;2022-08-21T13:42:55;29.40;47.50
67027;DHT22;53933;52.142;11.738;2022-08-21T13:45:27;29.40;48.20
67027;DHT22;53933;52.142;11.738;2022-08-21T13:47:54;29.40;49.00
67027;DHT22;53933;52.142;11.738;2022-08-21T13:50:24;29.40;49.00
67027;DHT22;53933;52.142;11.738;2022-08-21T13:52:59;29.40;48.40
67027;DHT22;53933;52.142;11.738;2022-08-21T13:55:34;29.40;46.70
67027;DHT22;53933;52.142;11.738;2022-08-21T13:58:03;29.40;47.00
67027;DHT22;53933;52.142;11.738;2022-08-21T14:00:33;29.20;45.60
67027;DHT22;53933;52.142;11.738;2022-08-21T14:03:05;29.20;46.90
67027;DHT22;53933;52.142;11.738;2022-08-21T14:05:34;29.30;47.60
67027;DHT22;53933;52.142;11.738;2022-08-21T14:08:05;29.30;47.60
67027;DHT22;53933;52.142;11.738;2022-08-21T14:10:36;29.30;47.30
67027;DHT22;53933;52.142;11.738;2022-08-21T14:13:05;29.30;47.30
67027;DHT22;53933;52.142;11.738;2022-08-21T14:15:34;29.30;47.10
67027;DHT22;53933;52.142;11.738;2022-08-21T14:18:09;29.30;47.60
67027;DHT22;53933;52.142;11.738;2022-08-21T14:20:39;29.30;48.00
67027;DHT22;53933;52.142;11.738;2022-08-21T14:23:06;29.30;46.80
67027;DHT22;53933;52.142;11.738;2022-08-21T14:25:41;29.30;46.30
67027;DHT22;53933;52.142;11.738;2022-08-21T14:28:18;29.30;46.80
67027;DHT22;53933;52.142;11.738;2022-08-21T14:30:47;29.20;46.50
67027;DHT22;53933;52.142;11.738;2022-08-21T14:33:20;29.20;46.00
67027;DHT22;53933;52.142;11.738;2022-08-21T14:35:47;29.20;46.10
67027;DHT22;53933;52.142;11.738;2022-08-21T14:38:15;29.20;46.80
67027;DHT22;53933;52.142;11.738;2022-08-21T14:40:43;29.30;47.40
67027;DHT22;53933;52.142;11.738;2022-08-21T14:43:11;29.30;47.50
67027;DHT22;53933;52.142;11.738;2022-08-21T14:45:37;29.30;47.40
67027;DHT22;53933;52.142;11.738;2022-08-21T14:48:07;29.30;47.90
67027;DHT22;53933;52.142;11.738;2022-08-21T14:50:34;29.30;47.80
67027;DHT22;53933;52.142;11.738;2022-08-21T14:53:01;29.30;47.80
67027;DHT22;53933;52.142;11.738;2022-08-21T14:55:29;29.30;47.80
67027;DHT22;53933;52.142;11.738;2022-08-21T14:58:16;29.30;47.50
67027;DHT22;53933;52.142;11.738;2022-08-21T15:00:43;29.30;47.00
67027;DHT22;53933;52.142;11.738;2022-08-21T15:03:11;29.30;46.70
67027;DHT22;53933;52.142;11.738;2022-08-21T15:05:38;29.30;46.70
67027;DHT22;53933;52.142;11.738;2022-08-21T15:08:04;29.20;46.40
67027;DHT22;53933;52.142;11.738;2022-08-21T15:10:33;29.20;46.40
67027;DHT22;53933;52.142;11.738;2022-08-21T15:13:00;29.20;46.30
67027;DHT22;53933;52.142;11.738;2022-08-21T15:15:28;29.20;46.10
67027;DHT22;53933;52.142;11.738;2022-08-21T15:17:54;29.20;46.20
67027;DHT22;53933;52.142;11.738;2022-08-21T15:20:22;29.20;46.30
67027;DHT22;53933;52.142;11.738;2022-08-21T15:22:49;29.10;47.00
67027;DHT22;53933;52.142;11.738;2022-08-21T15:25:16;29.10;49.30
67027;DHT22;53933;52.142;11.738;2022-08-21T15:27:42;29.00;47.50
67027;DHT22;53933;52.142;11.738;2022-08-21T15:30:10;29.00;47.40
67027;DHT22;53933;52.142;11.738;2022-08-21T15:32:36;29.00;46.30